Time;durP1;ratioP1;P1;durP2;ratioP2;P2;SDS_P1;SDS_P2;PMS_P1;PMS_P2;Temp;Humidity;BMP_temperature;BMP_pressure;BME280_temperature;BME280_humidity;BME280_pressure;Samples;Min_cycle;Max_cycle;Signal;HPM_P1;HPM_P2
2022/02/10 00:06:07;;;;;;;17.55;11.07;;;8.80;99.90;;;;;;5068122;28;20577;-73
2022/02/10 00:14:52;;;;;;;15.70;11.15;;;8.90;99.90;;;;;;5042075;28;20325;-74
2022/02/10 00:17:38;;;;;;;18.95;12.75;;;8.90;99.90;;;;;;5069457;28;20209;-74
2022/02/10 00:20:19;;;;;;;21.10;11.27;;;9.00;99.90;;;;;;5065358;28;20186;-74
2022/02/10 00:23:08;;;;;;;24.20;13.02;;;9.00;99.90;;;;;;5086049;28;20225;-74
2022/02/10 00:34:14;;;;;;;17.95;12.65;;;9.00;99.90;;;;;;5086647;28;20201;-73
2022/02/10 00:36:46;;;;;;;18.55;10.55;;;9.00;99.90;;;;;;5085993;28;20195;-71
2022/02/10 00:39:31;;;;;;;26.17;13.13;;;9.00;99.90;;;;;;5079678;28;20281;-72
2022/02/10 00:41:58;;;;;;;27.17;14.48;;;9.00;99.90;;;;;;5063830;28;20263;-73
2022/02/10 00:44:25;;;;;;;19.63;13.25;;;8.90;99.90;;;;;;5088725;28;20294;-73
2022/02/10 00:46:53;;;;;;;26.65;12.77;;;9.00;99.90;;;;;;5091758;28;20256;-73
2022/02/10 00:49:22;;;;;;;29.40;15.13;;;8.90;99.90;;;;;;5095762;28;20282;-72
2022/02/10 00:51:49;;;;;;;21.02;12.95;;;8.90;99.90;;;;;;5096614;28;20264;-72
2022/02/10 00:54:22;;;;;;;23.42;14.40;;;8.80;99.90;;;;;;5083818;28;20545;-73
2022/02/10 00:56:49;;;;;;;27.00;14.10;;;8.80;99.90;;;;;;5080248;28;20202;-73
2022/02/10 00:59:27;;;;;;;29.45;14.27;;;8.80;99.90;;;;;;5075024;28;20194;-72
2022/02/10 01:02:18;;;;;;;27.45;14.80;;;8.70;99.90;;;;;;5072668;28;20218;-73
2022/02/10 01:10:31;;;;;;;18.60;11.88;;;8.80;99.90;;;;;;5081490;28;20228;-73
2022/02/10 01:13:05;;;;;;;23.30;13.25;;;8.80;99.90;;;;;;5080463;28;20670;-73
2022/02/10 01:29:39;;;;;;;25.10;15.45;;;8.90;99.90;;;;;;5074939;28;20218;-72
2022/02/10 01:32:07;;;;;;;22.42;15.18;;;8.90;99.90;;;;;;5081144;28;20593;-73
2022/02/10 01:34:39;;;;;;;31.92;17.55;;;8.90;99.90;;;;;;5073272;28;20243;-74
2022/02/10 01:37:07;;;;;;;35.00;18.27;;;8.90;99.90;;;;;;5073268;28;20199;-73
2022/02/10 01:39:41;;;;;;;27.50;16.80;;;8.90;99.90;;;;;;5072623;28;20183;-74
2022/02/10 02:04:27;;;;;;;22.42;15.60;;;9.20;99.90;;;;;;5077046;28;20612;-74
2022/02/10 02:06:56;;;;;;;22.73;14.40;;;9.30;99.90;;;;;;5076695;28;20277;-73
2022/02/10 02:09:24;;;;;;;30.52;17.08;;;9.30;99.90;;;;;;5084521;28;20222;-73
2022/02/10 02:11:55;;;;;;;29.05;17.00;;;9.20;99.90;;;;;;5086177;28;20552;-73
2022/02/10 02:14:24;;;;;;;38.40;19.45;;;9.30;99.90;;;;;;5073000;28;20245;-74
2022/02/10 02:16:52;;;;;;;37.90;20.92;;;9.20;99.90;;;;;;5076770;28;20289;-72
2022/02/10 02:19:19;;;;;;;36.05;20.45;;;9.10;99.90;;;;;;5076934;28;20202;-72
2022/02/10 02:21:47;;;;;;;38.38;21.42;;;9.10;99.90;;;;;;5075812;28;20253;-72
2022/02/10 02:24:20;;;;;;;28.55;19.13;;;9.00;99.90;;;;;;5082921;28;20197;-72
2022/02/10 02:26:48;;;;;;;30.42;20.10;;;9.10;99.90;;;;;;5076781;28;20194;-73
2022/02/10 02:29:18;;;;;;;42.65;22.38;;;9.10;99.90;;;;;;5076335;28;20541;-72
2022/02/10 02:31:50;;;;;;;37.60;23.00;;;9.20;99.90;;;;;;5076503;28;20609;-72
2022/02/10 02:34:44;;;;;;;47.03;24.38;;;9.30;99.90;;;;;;5076169;28;20296;-72
2022/02/10 03:05:04;;;;;;;70.65;34.08;;;9.30;99.90;;;;;;5011780;28;20287;-73
2022/02/10 03:07:38;;;;;;;67.10;33.28;;;9.20;99.90;;;;;;5051326;28;20244;-73
2022/02/10 03:10:27;;;;;;;73.00;37.42;;;9.30;99.90;;;;;;5072779;28;20206;-72
2022/02/10 03:13:03;;;;;;;67.13;35.30;;;9.30;99.90;;;;;;5076758;28;20226;-72
2022/02/10 03:15:37;;;;;;;86.38;36.63;;;9.30;99.90;;;;;;5076446;28;20278;-73
2022/02/10 03:18:26;;;;;;;92.43;39.50;;;9.30;99.90;;;;;;5055731;28;20220;-72
2022/02/10 04:00:07;;;;;;;101.50;43.30;;;9.10;99.90;;;;;;5073608;28;20253;-70
2022/02/10 04:02:54;;;;;;;97.90;43.00;;;9.10;99.90;;;;;;5057560;28;20277;-71
2022/02/10 04:05:47;;;;;;;118.20;43.75;;;9.00;99.90;;;;;;5053439;28;20200;-71
2022/02/10 04:08:29;;;;;;;106.18;41.65;;;9.00;99.90;;;;;;5050098;28;20294;-71
2022/02/10 04:11:22;;;;;;;88.57;40.45;;;9.00;99.90;;;;;;5053382;28;20187;-71
2022/02/10 04:13:55;;;;;;;107.18;41.65;;;9.00;99.90;;;;;;5052723;28;20192;-72
2022/02/10 04:16:26;;;;;;;65.32;36.60;;;9.00;99.90;;;;;;5069612;28;20195;-71
2022/02/10 04:19:34;;;;;;;89.03;39.97;;;9.00;99.90;;;;;;5049537;28;20579;-71
2022/02/10 04:22:00;;;;;;;93.93;41.45;;;9.00;99.90;;;;;;5061172;28;20223;-71
2022/02/10 04:24:43;;;;;;;83.97;39.55;;;9.00;99.90;;;;;;5049084;28;20212;-70
2022/02/10 04:27:18;;;;;;;84.00;39.53;;;9.00;99.90;;;;;;5054615;28;20264;-70
2022/02/10 04:38:48;;;;;;;93.53;39.78;;;9.00;99.90;;;;;;5039914;28;20199;-72
2022/02/10 04:58:20;;;;;;;98.18;43.78;;;8.90;99.90;;;;;;5041726;28;20297;-71
2022/02/10 05:01:05;;;;;;;112.88;45.95;;;8.90;99.90;;;;;;5050260;28;20291;-71
2022/02/10 05:04:14;;;;;;;103.13;43.55;;;8.90;99.90;;;;;;5041593;28;20227;-71
2022/02/10 05:07:05;;;;;;;111.68;46.85;;;8.90;99.90;;;;;;5038722;28;20215;-72
2022/02/10 05:15:53;;;;;;;128.40;48.45;;;8.80;99.90;;;;;;5048059;28;20234;-72
2022/02/10 05:18:40;;;;;;;116.30;47.45;;;8.80;99.90;;;;;;5038580;28;20563;-72
2022/02/10 05:21:24;;;;;;;115.45;44.15;;;8.80;99.90;;;;;;5033853;28;20211;-72
2022/02/10 05:24:13;;;;;;;107.78;49.80;;;8.80;99.90;;;;;;5034686;28;20220;-72
2022/02/10 05:32:51;;;;;;;129.00;50.20;;;8.80;99.90;;;;;;4992040;28;20579;-71
2022/02/10 05:35:26;;;;;;;119.07;50.10;;;8.80;99.90;;;;;;5037025;28;20291;-71
2022/02/10 05:38:02;;;;;;;122.25;51.13;;;8.70;99.90;;;;;;5033232;28;20329;-72
2022/02/10 05:41:00;;;;;;;129.70;50.38;;;8.80;99.90;;;;;;5033865;28;20208;-73
2022/02/10 05:43:35;;;;;;;131.07;55.45;;;8.80;99.90;;;;;;5042838;28;20277;-72
2022/02/10 05:46:13;;;;;;;111.78;51.67;;;8.80;99.90;;;;;;5034009;28;20207;-72
2022/02/10 05:49:04;;;;;;;113.85;51.55;;;8.80;99.90;;;;;;5042517;28;20583;-71
2022/02/10 05:54:42;;;;;;;120.43;52.10;;;8.80;99.90;;;;;;5034641;28;20197;-74
2022/02/10 05:57:25;;;;;;;138.98;55.05;;;8.80;99.90;;;;;;5046771;28;20200;-71
2022/02/10 06:37:58;;;;;;;146.30;51.40;;;8.70;99.90;;;;;;5040228;28;20220;-72
2022/02/10 06:53:11;;;;;;;9.45;4.22;;;8.20;99.90;;;;;;5034196;28;20291;-73
2022/02/10 07:04:18;;;;;;;5.93;4.55;;;8.30;99.90;;;;;;5030413;28;20255;-73
2022/02/10 07:07:19;;;;;;;9.52;5.50;;;8.30;99.90;;;;;;5034561;28;20200;-73
2022/02/10 07:10:20;;;;;;;12.32;5.93;;;8.20;99.90;;;;;;5034256;28;20250;-72
2022/02/10 07:16:08;;;;;;;9.18;5.40;;;8.20;99.90;;;;;;5035664;28;20265;-71
2022/02/10 07:49:11;;;;;;;15.20;8.15;;;8.30;99.90;;;;;;5042888;28;20203;-73
2022/02/10 07:52:22;;;;;;;10.18;8.55;;;8.30;99.90;;;;;;5048791;28;20258;-75
2022/02/10 07:55:07;;;;;;;10.30;7.05;;;8.30;99.90;;;;;;5052793;28;20207;-72
2022/02/10 07:57:40;;;;;;;12.90;8.13;;;8.20;99.90;;;;;;5040148;28;20249;-74
2022/02/10 08:00:29;;;;;;;10.20;7.90;;;8.30;99.90;;;;;;5048085;28;20262;-73
2022/02/10 08:49:58;;;;;;;11.98;7.45;;;8.50;99.90;;;;;;5046528;28;20223;-76
2022/02/10 09:03:54;;;;;;;12.25;8.48;;;8.80;99.90;;;;;;5047109;28;20816;-74
2022/02/10 09:06:32;;;;;;;15.85;9.77;;;8.90;99.90;;;;;;5043785;28;20206;-74
2022/02/10 09:09:42;;;;;;;19.05;10.75;;;8.80;99.90;;;;;;5044140;28;20654;-76
2022/02/10 09:15:17;;;;;;;34.50;19.05;;;8.80;99.90;;;;;;5043971;28;20200;-73
2022/02/10 10:01:43;;;;;;;22.90;13.00;;;9.50;99.90;;;;;;5040550;28;20253;-74
2022/02/10 10:04:18;;;;;;;16.85;12.20;;;9.50;99.90;;;;;;5043206;28;20231;-73
2022/02/10 10:09:39;;;;;;;18.63;11.02;;;9.60;99.90;;;;;;5039990;28;20596;-75
2022/02/10 10:18:23;;;;;;;18.35;12.13;;;9.20;99.90;;;;;;5035542;28;20199;-76
2022/02/10 10:24:00;;;;;;;13.38;9.85;;;8.80;99.90;;;;;;5047055;28;20235;-75
2022/02/10 10:27:07;;;;;;;15.57;10.57;;;8.80;99.90;;;;;;5041048;28;20591;-74
2022/02/10 10:52:46;;;;;;;17.38;10.05;;;8.90;99.90;;;;;;5035875;28;20212;-74
2022/02/10 10:55:32;;;;;;;24.83;13.27;;;8.90;99.90;;;;;;5039024;28;20232;-74
2022/02/10 10:58:01;;;;;;;17.35;11.75;;;9.00;99.90;;;;;;5042726;28;20302;-75
2022/02/10 11:38:14;;;;;;;14.35;8.50;;;9.20;99.90;;;;;;5034411;28;20192;-74
2022/02/10 11:41:27;;;;;;;18.80;9.30;;;9.40;99.90;;;;;;5033565;28;20204;-75
2022/02/10 12:30:32;;;;;;;15.68;6.20;;;9.80;99.90;;;;;;5037797;28;20246;-75
2022/02/10 13:23:41;;;;;;;9.50;4.55;;;10.50;99.90;;;;;;5001238;28;20278;-74
2022/02/10 14:13:45;;;;;;;17.83;3.60;;;9.80;99.90;;;;;;5037992;28;20238;-77
2022/02/10 14:16:28;;;;;;;9.20;2.60;;;9.80;99.90;;;;;;5054934;28;20203;-76
2022/02/10 14:19:12;;;;;;;9.38;2.60;;;9.70;99.90;;;;;;5049796;28;20224;-75
2022/02/10 14:22:00;;;;;;;5.78;2.50;;;9.60;99.90;;;;;;5049418;28;20313;-77
2022/02/10 14:27:15;;;;;;;3.58;2.47;;;9.60;99.90;;;;;;5035671;28;20569;-75
2022/02/10 14:29:44;;;;;;;6.90;3.13;;;9.60;99.90;;;;;;5034686;28;20201;-76
2022/02/10 14:32:15;;;;;;;7.65;3.28;;;9.70;99.90;;;;;;5036810;28;20220;-76
2022/02/10 14:34:44;;;;;;;5.50;3.35;;;9.70;99.90;;;;;;5036634;28;20674;-75
2022/02/10 14:37:26;;;;;;;6.13;2.47;;;9.70;99.90;;;;;;5040381;28;20319;-74
2022/02/10 14:40:08;;;;;;;9.65;3.70;;;9.70;99.90;;;;;;5049577;28;20583;-76
2022/02/10 14:43:03;;;;;;;12.43;4.15;;;9.50;99.90;;;;;;5036824;28;20217;-76
2022/02/10 15:21:50;;;;;;;14.30;3.45;;;9.10;99.90;;;;;;5031434;28;20284;-73
2022/02/10 15:46:10;;;;;;;11.73;2.45;;;8.60;99.90;;;;;;5014575;28;20200;-76
2022/02/10 15:50:29;;;;;;;9.88;2.75;;;8.50;99.90;;;;;;5043114;28;20652;-75
2022/02/10 15:53:23;;;;;;;2.05;1.90;;;8.40;99.90;;;;;;5035634;28;20286;-74
2022/02/10 16:13:26;;;;;;;4.32;2.92;;;7.20;99.90;;;;;;5040089;28;21557;-76
2022/02/10 16:18:24;;;;;;;10.43;3.28;;;7.20;99.90;;;;;;5041677;28;20207;-75
2022/02/10 16:20:59;;;;;;;11.32;6.70;;;7.20;99.90;;;;;;5044339;28;20268;-75
2022/02/10 16:23:29;;;;;;;6.47;3.65;;;7.30;99.90;;;;;;5036724;28;20705;-75
2022/02/10 16:26:09;;;;;;;9.38;3.55;;;7.30;99.90;;;;;;5032615;28;20303;-75
2022/02/10 16:28:39;;;;;;;8.65;3.88;;;7.30;99.90;;;;;;5033283;28;20211;-74
2022/02/10 16:31:09;;;;;;;15.80;9.60;;;7.40;99.90;;;;;;5038839;28;20451;-75
2022/02/10 16:33:36;;;;;;;7.88;4.55;;;7.50;99.90;;;;;;5045656;28;20501;-75
2022/02/10 16:36:05;;;;;;;6.57;5.90;;;7.60;99.90;;;;;;5048813;28;20647;-75
2022/02/10 16:38:33;;;;;;;11.20;5.07;;;7.50;99.90;;;;;;5052857;28;20202;-75
2022/02/10 16:41:00;;;;;;;9.30;4.60;;;7.40;99.90;;;;;;5036026;28;20217;-76
2022/02/10 16:43:27;;;;;;;5.43;3.90;;;7.40;99.90;;;;;;5037692;28;20311;-75
2022/02/10 16:45:56;;;;;;;7.78;4.35;;;7.30;99.90;;;;;;5036228;28;20695;-76
2022/02/10 16:48:24;;;;;;;3.97;3.28;;;7.30;99.90;;;;;;5036065;28;20540;-76
2022/02/10 16:50:51;;;;;;;11.23;5.05;;;7.40;99.90;;;;;;5047821;28;20218;-76
2022/02/10 16:53:24;;;;;;;8.27;4.20;;;7.20;99.90;;;;;;5051005;28;20247;-77
2022/02/10 16:55:57;;;;;;;12.13;5.30;;;7.20;99.90;;;;;;5047974;28;20207;-75
2022/02/10 16:58:31;;;;;;;8.00;4.50;;;7.20;99.90;;;;;;5048028;28;20575;-76
2022/02/10 17:15:15;;;;;;;9.07;4.90;;;7.20;99.90;;;;;;5042161;28;20288;-75
2022/02/10 17:20:39;;;;;;;10.25;3.85;;;7.20;99.90;;;;;;5048306;28;20225;-75
2022/02/10 17:26:02;;;;;;;10.82;3.65;;;7.20;99.90;;;;;;5060751;28;20201;-73
2022/02/10 17:28:29;;;;;;;5.97;2.80;;;7.20;99.90;;;;;;5064591;28;20221;-75
2022/02/10 17:31:09;;;;;;;6.80;3.20;;;7.30;99.90;;;;;;5071441;28;20238;-76
2022/02/10 17:33:51;;;;;;;10.07;3.83;;;7.20;99.90;;;;;;5065882;28;20215;-75
2022/02/10 17:36:30;;;;;;;7.97;3.47;;;7.20;99.90;;;;;;5071970;28;20199;-75
2022/02/10 17:42:04;;;;;;;6.45;3.38;;;7.10;99.90;;;;;;5044192;28;20229;-75
2022/02/10 17:44:37;;;;;;;11.52;4.47;;;7.20;99.90;;;;;;5049167;28;20244;-73
2022/02/10 17:53:01;;;;;;;11.50;4.43;;;7.10;99.90;;;;;;5048416;28;20251;-75
2022/02/10 17:55:28;;;;;;;10.75;4.30;;;7.00;99.90;;;;;;5045761;28;20207;-76
2022/02/10 17:57:55;;;;;;;21.48;8.65;;;7.00;99.90;;;;;;5036896;28;20206;-75
2022/02/10 18:00:25;;;;;;;22.30;8.55;;;7.10;99.90;;;;;;5049272;28;20222;-75
2022/02/10 18:02:55;;;;;;;17.70;10.60;;;7.20;99.90;;;;;;5039299;28;20230;-75
2022/02/10 18:05:55;;;;;;;11.57;5.93;;;7.20;99.90;;;;;;5044502;28;20223;-76
2022/02/10 18:08:24;;;;;;;10.85;4.47;;;7.20;99.90;;;;;;5048205;28;20623;-75
2022/02/10 18:13:49;;;;;;;31.58;17.02;;;7.20;99.90;;;;;;5044977;28;20195;-76
2022/02/10 18:16:20;;;;;;;19.42;5.25;;;7.10;99.90;;;;;;5039948;28;20204;-77
2022/02/10 18:18:53;;;;;;;18.80;5.57;;;7.10;99.90;;;;;;5044656;28;20646;-76
2022/02/10 18:21:38;;;;;;;17.35;6.70;;;7.20;99.90;;;;;;5052370;28;20202;-75
2022/02/10 18:24:39;;;;;;;6.93;3.35;;;7.20;99.90;;;;;;5039482;28;20649;-78
2022/02/10 18:27:13;;;;;;;15.15;6.63;;;7.10;99.90;;;;;;5039649;28;20213;-76
2022/02/10 18:30:02;;;;;;;8.20;5.00;;;7.10;99.90;;;;;;5044117;28;20212;-76
2022/02/10 19:01:40;;;;;;;14.35;4.50;;;6.90;99.90;;;;;;5045144;28;20205;-75
2022/02/10 19:08:58;;;;;;;9.05;3.55;;;6.70;99.90;;;;;;5042323;28;20545;-75
2022/02/10 19:11:25;;;;;;;8.57;4.35;;;6.70;99.90;;;;;;5050556;28;20208;-76
2022/02/10 19:13:57;;;;;;;23.00;5.15;;;6.60;99.90;;;;;;5040335;28;20206;-76
2022/02/10 19:16:25;;;;;;;7.00;3.40;;;6.60;99.90;;;;;;5048960;28;20198;-75
2022/02/10 19:18:53;;;;;;;6.78;3.20;;;6.60;99.90;;;;;;5038408;28;20198;-75
2022/02/10 19:21:19;;;;;;;11.18;4.38;;;6.60;99.90;;;;;;5033244;28;20596;-76
2022/02/10 19:23:46;;;;;;;9.02;4.63;;;6.60;99.90;;;;;;5032770;28;20268;-77
2022/02/10 19:26:14;;;;;;;23.60;4.15;;;6.70;99.90;;;;;;5033407;28;20199;-75
2022/02/10 19:28:41;;;;;;;8.32;3.72;;;6.60;99.90;;;;;;5032889;28;20210;-74
2022/02/10 19:31:12;;;;;;;7.65;4.10;;;6.70;99.90;;;;;;5032590;28;20192;-75
2022/02/10 19:33:39;;;;;;;9.55;3.38;;;6.60;99.90;;;;;;5033033;28;20226;-75
2022/02/10 19:36:06;;;;;;;10.52;4.53;;;6.60;99.90;;;;;;5033601;28;20634;-76
2022/02/10 19:38:34;;;;;;;10.88;3.78;;;6.50;99.90;;;;;;5033473;28;20233;-76
2022/02/10 19:41:01;;;;;;;9.15;4.15;;;6.50;99.90;;;;;;5035338;28;20290;-76
2022/02/10 19:43:28;;;;;;;15.57;4.55;;;6.50;99.90;;;;;;5032332;28;20258;-74
2022/02/10 19:45:55;;;;;;;7.13;3.53;;;6.50;99.90;;;;;;5045906;28;20313;-75
2022/02/10 19:48:26;;;;;;;7.68;4.25;;;6.50;99.90;;;;;;5040886;28;20224;-75
2022/02/10 19:50:54;;;;;;;7.53;3.80;;;6.40;99.90;;;;;;5048771;28;20651;-76
2022/02/10 19:53:22;;;;;;;11.20;4.38;;;6.40;99.90;;;;;;5052875;28;20247;-79
2022/02/10 19:55:51;;;;;;;6.38;4.22;;;6.40;99.90;;;;;;5039597;28;20204;-79
2022/02/10 19:58:22;;;;;;;7.68;3.80;;;6.40;99.90;;;;;;5049491;28;20723;-77
2022/02/10 20:00:52;;;;;;;18.20;5.03;;;6.40;99.90;;;;;;5034773;28;20259;-78
2022/02/10 20:03:21;;;;;;;12.68;5.47;;;6.40;99.90;;;;;;5035448;28;20699;-76
2022/02/10 20:05:52;;;;;;;17.83;4.25;;;6.40;99.90;;;;;;5036222;28;20216;-77
2022/02/10 20:08:21;;;;;;;14.20;4.47;;;6.50;99.90;;;;;;5046194;28;20291;-78
2022/02/10 20:10:53;;;;;;;12.70;6.25;;;6.30;99.90;;;;;;5049594;28;20315;-77
2022/02/10 20:13:22;;;;;;;9.98;3.88;;;6.30;99.90;;;;;;5041438;28;20278;-76
2022/02/10 20:15:50;;;;;;;12.38;5.90;;;6.40;99.90;;;;;;5044799;28;20196;-79
2022/02/10 20:18:18;;;;;;;8.32;4.45;;;6.50;99.90;;;;;;5050371;28;20197;-77
2022/02/10 20:20:47;;;;;;;10.02;3.90;;;6.30;99.90;;;;;;5054765;28;20310;-78
2022/02/10 20:23:15;;;;;;;10.25;3.60;;;6.30;99.90;;;;;;5046562;28;20411;-82
2022/02/10 20:25:42;;;;;;;10.13;4.65;;;6.30;99.90;;;;;;5036520;28;20226;-78
2022/02/10 20:28:12;;;;;;;9.43;4.78;;;6.30;99.90;;;;;;5036940;28;20229;-79
2022/02/10 20:30:39;;;;;;;8.95;5.55;;;6.40;99.90;;;;;;5036817;28;20264;-77
2022/02/10 20:33:07;;;;;;;9.45;3.22;;;6.20;99.90;;;;;;5037433;28;20249;-78
2022/02/10 20:35:36;;;;;;;7.75;3.67;;;6.20;99.90;;;;;;5040476;28;20702;-78
2022/02/10 20:38:04;;;;;;;11.27;3.28;;;6.20;99.90;;;;;;5040888;28;20208;-81
2022/02/10 20:40:35;;;;;;;7.68;4.18;;;6.10;99.90;;;;;;5051241;28;20213;-78
2022/02/10 20:43:06;;;;;;;9.70;4.90;;;6.00;99.90;;;;;;5052122;28;20243;-80
2022/02/10 20:45:34;;;;;;;20.02;5.00;;;6.00;99.90;;;;;;5054008;28;20236;-76
2022/02/10 20:48:06;;;;;;;8.60;3.30;;;6.00;99.90;;;;;;5050364;28;20223;-78
2022/02/10 20:50:33;;;;;;;17.40;3.83;;;6.00;99.90;;;;;;5047789;28;20246;-78
2022/02/10 20:53:00;;;;;;;7.20;4.00;;;6.00;99.90;;;;;;5042776;28;20217;-76
2022/02/10 20:55:27;;;;;;;7.50;3.15;;;5.90;99.90;;;;;;5042339;28;20201;-75
2022/02/10 20:57:55;;;;;;;9.20;4.72;;;5.90;99.90;;;;;;5040069;28;20207;-77
2022/02/10 21:00:29;;;;;;;9.63;4.70;;;5.90;99.90;;;;;;5051260;28;20205;-76
2022/02/10 21:02:56;;;;;;;13.82;3.40;;;5.90;99.90;;;;;;5052184;28;20567;-76
2022/02/10 21:05:34;;;;;;;7.35;3.65;;;6.00;99.90;;;;;;5047014;28;20699;-76
2022/02/10 21:08:08;;;;;;;11.00;3.55;;;6.00;99.90;;;;;;5039491;28;20196;-76
2022/02/10 21:10:37;;;;;;;12.70;3.33;;;6.00;99.90;;;;;;5037473;28;20697;-76
2022/02/10 21:13:06;;;;;;;14.73;3.88;;;6.00;99.90;;;;;;5035033;28;20706;-77
2022/02/10 21:15:40;;;;;;;9.15;3.67;;;5.90;99.90;;;;;;5034124;28;20208;-77
2022/02/10 21:18:08;;;;;;;6.70;3.40;;;5.80;99.90;;;;;;5047447;28;20674;-80
2022/02/10 21:20:37;;;;;;;13.07;3.13;;;5.80;99.90;;;;;;5040789;28;20584;-78
2022/02/10 21:23:14;;;;;;;14.57;3.42;;;5.80;99.90;;;;;;5045511;28;20250;-77
2022/02/10 21:25:42;;;;;;;12.68;4.10;;;5.80;99.90;;;;;;5044362;28;20257;-77
2022/02/10 21:28:18;;;;;;;9.35;5.80;;;5.80;99.90;;;;;;5047055;28;20288;-79
2022/02/10 21:30:54;;;;;;;8.63;3.92;;;5.70;99.90;;;;;;5047134;28;20660;-78
2022/02/10 21:33:28;;;;;;;14.73;3.78;;;5.70;99.90;;;;;;5040723;28;20224;-76
2022/02/10 21:38:49;;;;;;;12.02;3.95;;;5.70;99.90;;;;;;5041672;28;20203;-77
2022/02/10 22:10:22;;;;;;;11.95;3.45;;;5.60;99.90;;;;;;5020348;28;20209;-75
2022/02/10 22:18:46;;;;;;;13.18;4.60;;;5.60;99.90;;;;;;5048297;28;20566;-75
2022/02/10 22:21:18;;;;;;;6.70;4.68;;;5.60;99.90;;;;;;5034607;28;20200;-75
2022/02/10 22:23:47;;;;;;;6.93;2.95;;;5.50;99.90;;;;;;5035345;28;20573;-75
2022/02/10 22:26:19;;;;;;;10.18;3.65;;;5.50;99.90;;;;;;5038292;28;20217;-75
2022/02/10 22:28:52;;;;;;;4.68;2.70;;;5.50;99.90;;;;;;5035841;28;20254;-75
2022/02/10 22:31:27;;;;;;;9.02;3.17;;;5.50;99.90;;;;;;5033190;28;20283;-75
2022/02/10 22:34:10;;;;;;;6.03;3.05;;;5.50;99.90;;;;;;5033156;28;20207;-73
2022/02/10 22:36:40;;;;;;;16.83;4.35;;;5.50;99.90;;;;;;5034127;28;20258;-75
2022/02/10 22:39:09;;;;;;;8.20;3.15;;;5.50;99.90;;;;;;5044809;28;20228;-74
2022/02/10 22:41:37;;;;;;;5.63;3.20;;;5.50;99.90;;;;;;5051855;28;20225;-77
2022/02/10 22:44:05;;;;;;;11.80;3.63;;;5.50;99.90;;;;;;5039162;28;20218;-81
2022/02/10 22:46:33;;;;;;;10.13;3.33;;;5.50;99.90;;;;;;5036808;28;20367;-79
2022/02/10 22:49:02;;;;;;;11.85;3.47;;;5.50;99.90;;;;;;5038806;28;20222;-77
2022/02/10 22:51:32;;;;;;;20.92;4.40;;;5.50;99.90;;;;;;5045287;28;20275;-77
2022/02/10 22:53:59;;;;;;;14.70;3.83;;;5.50;99.90;;;;;;5041102;28;20759;-77
2022/02/10 22:56:29;;;;;;;17.58;3.50;;;5.50;99.90;;;;;;5038690;28;20293;-75
2022/02/10 22:59:01;;;;;;;9.85;5.10;;;5.40;99.90;;;;;;5034884;28;20243;-75
2022/02/10 23:01:33;;;;;;;14.60;4.57;;;5.40;99.90;;;;;;5032963;28;20205;-77
2022/02/10 23:04:02;;;;;;;6.43;3.33;;;5.40;99.90;;;;;;5033484;28;20600;-75
2022/02/10 23:06:29;;;;;;;16.95;4.55;;;5.40;99.90;;;;;;5033739;28;20726;-76
2022/02/10 23:08:59;;;;;;;6.05;3.60;;;5.40;99.90;;;;;;5034852;28;20239;-77
2022/02/10 23:11:29;;;;;;;9.30;2.83;;;5.40;99.90;;;;;;5032962;28;20258;-76
2022/02/10 23:13:58;;;;;;;7.25;3.05;;;5.40;99.90;;;;;;5033902;28;20197;-77
2022/02/10 23:16:25;;;;;;;6.55;3.53;;;5.40;99.90;;;;;;5033434;28;20930;-77
2022/02/10 23:18:53;;;;;;;9.38;2.88;;;5.30;99.90;;;;;;5033432;28;20193;-76
2022/02/10 23:21:21;;;;;;;10.65;3.25;;;5.40;99.90;;;;;;5032545;28;20236;-77
2022/02/10 23:23:50;;;;;;;9.98;3.22;;;5.30;99.90;;;;;;5041637;28;20271;-76
2022/02/10 23:26:20;;;;;;;11.30;3.30;;;5.30;99.90;;;;;;5040014;28;20294;-77
2022/02/10 23:28:49;;;;;;;10.27;3.45;;;5.30;99.90;;;;;;5052745;28;20311;-78
2022/02/10 23:31:19;;;;;;;7.15;3.53;;;5.30;99.90;;;;;;5052237;28;20275;-76
2022/02/10 23:33:51;;;;;;;11.57;3.90;;;5.40;99.90;;;;;;5034280;28;20212;-76
2022/02/10 23:39:15;;;;;;;12.88;3.58;;;5.30;99.90;;;;;;5038166;28;20285;-75
2022/02/10 23:44:32;;;;;;;13.05;3.03;;;5.20;99.90;;;;;;5051251;28;20286;-77
2022/02/10 23:47:01;;;;;;;9.57;2.85;;;5.30;99.90;;;;;;5051143;28;20208;-76
2022/02/10 23:49:30;;;;;;;6.05;2.92;;;5.20;99.90;;;;;;5037911;28;20209;-76
2022/02/10 23:52:01;;;;;;;11.30;4.38;;;5.20;99.90;;;;;;5050934;28;20298;-77
2022/02/10 23:54:35;;;;;;;9.27;3.08;;;5.20;99.90;;;;;;5040196;28;20196;-76
2022/02/10 23:57:04;;;;;;;7.60;3.90;;;5.20;99.90;;;;;;5052997;28;20257;-76
